CDT,Max TemperatureF,Mean TemperatureF,Min TemperatureF,Max Dew PointF,MeanDew PointF,Min DewpointF,Max Humidity, Mean Humidity, Min Humidity, Max Sea Level PressureIn, Mean Sea Level PressureIn, Min Sea Level PressureIn, Max VisibilityMiles, Mean VisibilityMiles, Min VisibilityMiles, Max Wind SpeedMPH, Mean Wind SpeedMPH, Max Gust SpeedMPH,PrecipitationIn, CloudCover, Events, WindDirDegrees
2013-8-1,95,88,80,75,73,68,79,63,44,30.04,29.99,29.93,10,10,8,10,4,17,0.00,1,,290
2013-8-2,95,88,80,75,72,70,79,60,44,30.03,29.98,29.94,10,10,10,10,3,,0.00,2,,135
2013-8-3,93,86,80,75,74,72,79,64,52,30.09,30.04,30.00,10,10,7,9,3,,0.00,1,,211
2013-8-4,96,88,80,75,73,64,79,61,34,30.11,30.06,30.00,10,10,10,9,4,,0.00,1,,275
2013-8-5,98,90,82,79,73,72,74,63,42,30.08,30.02,29.96,10,10,10,8,4,,0.03,2,,264
2013-8-6,96,89,82,75,73,72,74,63,44,30.03,29.98,29.93,10,10,4,9,4,,0.00,3,,248
2013-8-7,96,89,82,75,73,70,79,61,41,30.01,29.95,29.90,10,10,9,8,5,,0.00,2,,238
2013-8-8,93,86,78,75,74,70,79,66,55,29.98,29.94,29.91,10,10,3,10,4,,0.19,1,,126
2013-8-9,91,86,80,75,73,72,79,67,55,30.03,29.97,29.93,10,10,8,13,4,18,0.02,2,,122
2013-8-10,93,88,82,73,72,70,74,64,46,30.09,30.04,30.01,10,10,5,10,4,20,0.05,1,,137
2013-8-11,93,86,80,73,72,70,79,67,46,30.12,30.09,30.06,10,10,3,10,5,17,0.22,1,,146
2013-8-12,93,86,80,75,73,70,84,68,49,30.12,30.08,30.04,10,10,8,12,4,,0.00,1,,164
2013-8-13,93,84,75,75,73,70,89,75,52,30.09,30.03,29.96,10,9,1,13,4,22,1.68,3,,221
2013-8-14,80,78,75,73,72,70,89,83,78,30.01,29.97,29.94,10,10,4,14,4,20,0.57,4,,208
2013-8-15,87,81,75,73,71,70,89,73,55,30.00,29.96,29.92,10,10,5,9,3,,0.00,3,,10
2013-8-16,89,84,80,73,71,66,79,68,52,29.99,29.96,29.92,10,10,9,12,3,16,0.00,3,,83
2013-8-17,84,80,75,73,71,68,89,75,62,29.98,29.95,29.92,10,10,5,10,5,20,0.03,5,,76
2013-8-18,82,78,75,72,70,68,89,77,66,30.01,29.97,29.92,10,10,6,10,5,18,0.00,5,,1
2013-8-19,86,80,75,73,71,70,83,76,62,30.06,30.02,29.99,10,10,2,9,2,,0.80,3,,31
2013-8-20,89,83,77,75,72,70,83,73,58,30.07,30.03,30.00,10,10,2,8,2,,0.59,1,,108
2013-8-21,89,84,78,75,73,70,84,74,59,30.12,30.08,30.04,10,10,3,8,3,16,0.16,2,,115
2013-8-22,89,84,78,73,71,68,83,67,52,30.10,30.04,29.97,10,10,10,12,5,16,0.00,1,,78
2013-8-23,84,81,78,75,72,70,84,73,62,30.02,29.98,29.94,10,10,7,14,4,22,0.17,3,,72
2013-8-24,80,78,75,72,71,68,89,77,69,30.10,30.04,29.97,10,10,5,9,4,16,0.23,4,,101
2013-8-25,82,78,75,73,71,70,89,79,66,30.17,30.13,30.08,10,10,5,10,5,17,0.46,4,,102
2013-8-26,84,80,77,73,71,66,83,73,61,30.19,30.14,30.10,10,10,3,10,4,17,0.12,3,,92
2013-8-27,87,81,75,70,66,61,83,59,40,30.13,30.09,30.05,10,10,10,9,4,,0.00,1,,28
2013-8-28,87,81,75,66,63,57,73,53,35,30.11,30.06,30.02,10,10,9,9,2,,0.00,2,,9
2013-8-29,89,82,75,70,65,59,73,55,36,30.09,30.04,30.00,10,10,9,9,3,,0.00,1,,4
2013-8-30,91,84,78,72,68,64,74,60,43,30.06,30.00,29.95,10,10,10,8,3,,0.00,1,,293
2013-8-31,91,84,78,73,71,68,78,64,49,30.01,29.94,29.89,10,10,10,12,4,,0.00,2,,225